sensor_id;sensor_type;location;lat;lon;timestamp;P1;durP1;ratioP1;P2;durP2;ratioP2
21138;SDS011;10727;43.600;1.444;2024-03-22T00:02:15;30.00;;;17.25;;
21138;SDS011;10727;43.600;1.444;2024-03-22T00:05:21;33.75;;;20.83;;
21138;SDS011;10727;43.600;1.444;2024-03-22T00:08:25;34.83;;;22.20;;
21138;SDS011;10727;43.600;1.444;2024-03-22T00:11:30;30.60;;;20.27;;
21138;SDS011;10727;43.600;1.444;2024-03-22T00:14:35;33.40;;;19.98;;
21138;SDS011;10727;43.600;1.444;2024-03-22T00:17:42;32.92;;;19.27;;
21138;SDS011;10727;43.600;1.444;2024-03-22T00:20:47;29.52;;;17.73;;
21138;SDS011;10727;43.600;1.444;2024-03-22T00:23:52;24.23;;;14.90;;
21138;SDS011;10727;43.600;1.444;2024-03-22T00:26:57;26.92;;;15.82;;
21138;SDS011;10727;43.600;1.444;2024-03-22T00:30:02;22.90;;;13.57;;
21138;SDS011;10727;43.600;1.444;2024-03-22T00:33:08;24.33;;;13.15;;
21138;SDS011;10727;43.600;1.444;2024-03-22T00:36:14;28.75;;;13.40;;
21138;SDS011;10727;43.600;1.444;2024-03-22T00:39:18;25.08;;;13.65;;
21138;SDS011;10727;43.600;1.444;2024-03-22T00:42:23;23.33;;;12.18;;
21138;SDS011;10727;43.600;1.444;2024-03-22T00:45:28;23.88;;;11.88;;
21138;SDS011;10727;43.600;1.444;2024-03-22T00:48:34;20.73;;;11.57;;
21138;SDS011;10727;43.600;1.444;2024-03-22T00:51:39;19.67;;;10.90;;
21138;SDS011;10727;43.600;1.444;2024-03-22T00:54:46;21.23;;;11.25;;
21138;SDS011;10727;43.600;1.444;2024-03-22T00:57:51;22.20;;;10.38;;
21138;SDS011;10727;43.600;1.444;2024-03-22T01:00:56;26.88;;;10.25;;
21138;SDS011;10727;43.600;1.444;2024-03-22T01:04:03;17.95;;;9.52;;
21138;SDS011;10727;43.600;1.444;2024-03-22T01:07:09;19.02;;;9.73;;
21138;SDS011;10727;43.600;1.444;2024-03-22T01:10:13;17.05;;;9.02;;
21138;SDS011;10727;43.600;1.444;2024-03-22T01:13:19;19.73;;;9.50;;
21138;SDS011;10727;43.600;1.444;2024-03-22T01:16:24;17.63;;;9.05;;
21138;SDS011;10727;43.600;1.444;2024-03-22T01:19:30;16.95;;;8.95;;
21138;SDS011;10727;43.600;1.444;2024-03-22T01:22:35;18.55;;;9.10;;
21138;SDS011;10727;43.600;1.444;2024-03-22T01:25:40;20.20;;;9.07;;
21138;SDS011;10727;43.600;1.444;2024-03-22T01:28:46;20.30;;;8.90;;
21138;SDS011;10727;43.600;1.444;2024-03-22T01:31:52;19.48;;;8.77;;
21138;SDS011;10727;43.600;1.444;2024-03-22T01:34:58;20.60;;;8.95;;
21138;SDS011;10727;43.600;1.444;2024-03-22T01:38:04;24.13;;;9.45;;
21138;SDS011;10727;43.600;1.444;2024-03-22T01:41:08;18.40;;;9.10;;
21138;SDS011;10727;43.600;1.444;2024-03-22T01:44:13;25.20;;;9.20;;
21138;SDS011;10727;43.600;1.444;2024-03-22T01:47:17;20.27;;;8.80;;
21138;SDS011;10727;43.600;1.444;2024-03-22T01:50:24;20.92;;;10.20;;
21138;SDS011;10727;43.600;1.444;2024-03-22T01:53:28;18.73;;;9.32;;
21138;SDS011;10727;43.600;1.444;2024-03-22T01:56:34;18.23;;;9.88;;
21138;SDS011;10727;43.600;1.444;2024-03-22T01:59:39;22.10;;;10.05;;
21138;SDS011;10727;43.600;1.444;2024-03-22T02:02:44;25.55;;;10.25;;
21138;SDS011;10727;43.600;1.444;2024-03-22T02:05:51;21.15;;;10.10;;
21138;SDS011;10727;43.600;1.444;2024-03-22T02:08:56;21.17;;;9.63;;
21138;SDS011;10727;43.600;1.444;2024-03-22T02:12:02;16.60;;;9.65;;
21138;SDS011;10727;43.600;1.444;2024-03-22T02:15:08;16.92;;;9.35;;
21138;SDS011;10727;43.600;1.444;2024-03-22T02:18:13;20.02;;;10.15;;
21138;SDS011;10727;43.600;1.444;2024-03-22T02:21:19;17.30;;;9.70;;
21138;SDS011;10727;43.600;1.444;2024-03-22T02:24:25;20.42;;;10.25;;
21138;SDS011;10727;43.600;1.444;2024-03-22T02:27:29;20.67;;;9.55;;
21138;SDS011;10727;43.600;1.444;2024-03-22T02:30:34;17.25;;;9.40;;
21138;SDS011;10727;43.600;1.444;2024-03-22T02:33:39;20.02;;;9.93;;
21138;SDS011;10727;43.600;1.444;2024-03-22T02:36:44;20.00;;;9.40;;
21138;SDS011;10727;43.600;1.444;2024-03-22T02:39:50;26.20;;;8.70;;
21138;SDS011;10727;43.600;1.444;2024-03-22T02:42:55;19.95;;;9.20;;
21138;SDS011;10727;43.600;1.444;2024-03-22T02:46:01;18.80;;;9.05;;
21138;SDS011;10727;43.600;1.444;2024-03-22T02:49:06;21.67;;;9.45;;
21138;SDS011;10727;43.600;1.444;2024-03-22T02:52:10;17.48;;;9.18;;
21138;SDS011;10727;43.600;1.444;2024-03-22T02:55:17;21.17;;;8.82;;
21138;SDS011;10727;43.600;1.444;2024-03-22T02:58:21;19.73;;;8.55;;
21138;SDS011;10727;43.600;1.444;2024-03-22T03:01:27;17.80;;;8.35;;
21138;SDS011;10727;43.600;1.444;2024-03-22T03:04:31;18.33;;;8.82;;
21138;SDS011;10727;43.600;1.444;2024-03-22T03:07:37;20.30;;;8.80;;
21138;SDS011;10727;43.600;1.444;2024-03-22T03:10:43;20.70;;;8.75;;
21138;SDS011;10727;43.600;1.444;2024-03-22T03:13:48;19.27;;;8.30;;
21138;SDS011;10727;43.600;1.444;2024-03-22T03:16:52;20.92;;;8.80;;
21138;SDS011;10727;43.600;1.444;2024-03-22T03:19:58;20.25;;;8.55;;
21138;SDS011;10727;43.600;1.444;2024-03-22T03:23:03;14.43;;;8.20;;
21138;SDS011;10727;43.600;1.444;2024-03-22T03:26:09;17.70;;;9.20;;
21138;SDS011;10727;43.600;1.444;2024-03-22T03:29:13;20.63;;;8.13;;
21138;SDS011;10727;43.600;1.444;2024-03-22T03:32:19;17.45;;;7.55;;
21138;SDS011;10727;43.600;1.444;2024-03-22T03:35:24;18.83;;;7.95;;
21138;SDS011;10727;43.600;1.444;2024-03-22T03:38:29;16.02;;;8.05;;
21138;SDS011;10727;43.600;1.444;2024-03-22T03:41:35;17.35;;;8.07;;
21138;SDS011;10727;43.600;1.444;2024-03-22T03:44:40;14.52;;;7.03;;
21138;SDS011;10727;43.600;1.444;2024-03-22T03:47:45;17.65;;;7.60;;
21138;SDS011;10727;43.600;1.444;2024-03-22T03:50:53;14.18;;;7.72;;
21138;SDS011;10727;43.600;1.444;2024-03-22T03:53:58;16.05;;;7.40;;
21138;SDS011;10727;43.600;1.444;2024-03-22T03:57:04;13.82;;;7.32;;
21138;SDS011;10727;43.600;1.444;2024-03-22T04:00:09;13.75;;;7.10;;
21138;SDS011;10727;43.600;1.444;2024-03-22T04:03:14;17.95;;;7.43;;
21138;SDS011;10727;43.600;1.444;2024-03-22T04:06:19;15.10;;;7.45;;
21138;SDS011;10727;43.600;1.444;2024-03-22T04:09:24;15.70;;;7.50;;
21138;SDS011;10727;43.600;1.444;2024-03-22T04:12:30;12.77;;;7.03;;
21138;SDS011;10727;43.600;1.444;2024-03-22T04:15:34;16.17;;;7.22;;
21138;SDS011;10727;43.600;1.444;2024-03-22T04:18:39;13.52;;;6.68;;
21138;SDS011;10727;43.600;1.444;2024-03-22T04:21:44;15.63;;;7.38;;
21138;SDS011;10727;43.600;1.444;2024-03-22T04:24:49;13.82;;;6.57;;
21138;SDS011;10727;43.600;1.444;2024-03-22T04:27:55;13.35;;;6.47;;
21138;SDS011;10727;43.600;1.444;2024-03-22T04:31:01;13.63;;;7.10;;
21138;SDS011;10727;43.600;1.444;2024-03-22T04:34:05;18.38;;;6.97;;
21138;SDS011;10727;43.600;1.444;2024-03-22T04:37:10;16.05;;;6.95;;
21138;SDS011;10727;43.600;1.444;2024-03-22T04:40:16;15.75;;;6.68;;
21138;SDS011;10727;43.600;1.444;2024-03-22T04:43:23;19.38;;;6.95;;
21138;SDS011;10727;43.600;1.444;2024-03-22T04:46:27;16.55;;;6.60;;
21138;SDS011;10727;43.600;1.444;2024-03-22T04:49:32;16.73;;;6.22;;
21138;SDS011;10727;43.600;1.444;2024-03-22T04:52:37;16.85;;;6.97;;
21138;SDS011;10727;43.600;1.444;2024-03-22T04:55:42;15.82;;;6.60;;
21138;SDS011;10727;43.600;1.444;2024-03-22T04:58:49;15.77;;;7.22;;
21138;SDS011;10727;43.600;1.444;2024-03-22T05:01:54;14.50;;;6.50;;
21138;SDS011;10727;43.600;1.444;2024-03-22T05:04:59;14.55;;;7.32;;
21138;SDS011;10727;43.600;1.444;2024-03-22T05:08:04;13.25;;;7.28;;
21138;SDS011;10727;43.600;1.444;2024-03-22T05:11:10;17.33;;;7.30;;
21138;SDS011;10727;43.600;1.444;2024-03-22T05:14:16;17.17;;;6.85;;
21138;SDS011;10727;43.600;1.444;2024-03-22T05:17:21;15.30;;;7.00;;
21138;SDS011;10727;43.600;1.444;2024-03-22T05:20:27;13.77;;;7.00;;
21138;SDS011;10727;43.600;1.444;2024-03-22T05:23:32;15.20;;;7.57;;
21138;SDS011;10727;43.600;1.444;2024-03-22T05:26:37;13.60;;;7.00;;
21138;SDS011;10727;43.600;1.444;2024-03-22T05:29:43;11.57;;;7.22;;
21138;SDS011;10727;43.600;1.444;2024-03-22T05:32:48;19.05;;;7.82;;
21138;SDS011;10727;43.600;1.444;2024-03-22T05:35:54;15.25;;;7.45;;
21138;SDS011;10727;43.600;1.444;2024-03-22T05:38:58;14.48;;;7.75;;
21138;SDS011;10727;43.600;1.444;2024-03-22T05:42:04;15.60;;;7.75;;
21138;SDS011;10727;43.600;1.444;2024-03-22T05:45:10;14.90;;;7.85;;
21138;SDS011;10727;43.600;1.444;2024-03-22T05:48:15;17.20;;;8.40;;
21138;SDS011;10727;43.600;1.444;2024-03-22T05:51:19;17.17;;;8.40;;
21138;SDS011;10727;43.600;1.444;2024-03-22T05:54:25;14.73;;;8.38;;
21138;SDS011;10727;43.600;1.444;2024-03-22T05:57:30;19.83;;;8.52;;
21138;SDS011;10727;43.600;1.444;2024-03-22T06:00:37;15.02;;;8.57;;
21138;SDS011;10727;43.600;1.444;2024-03-22T06:03:43;17.58;;;8.40;;
21138;SDS011;10727;43.600;1.444;2024-03-22T06:06:47;14.75;;;8.10;;
21138;SDS011;10727;43.600;1.444;2024-03-22T06:09:52;16.27;;;8.60;;
21138;SDS011;10727;43.600;1.444;2024-03-22T06:12:56;16.10;;;8.70;;
21138;SDS011;10727;43.600;1.444;2024-03-22T06:16:03;18.85;;;8.55;;
21138;SDS011;10727;43.600;1.444;2024-03-22T06:19:07;15.35;;;8.68;;
21138;SDS011;10727;43.600;1.444;2024-03-22T06:22:13;18.15;;;8.23;;
21138;SDS011;10727;43.600;1.444;2024-03-22T06:25:18;17.52;;;8.10;;
21138;SDS011;10727;43.600;1.444;2024-03-22T06:28:23;17.27;;;8.45;;
21138;SDS011;10727;43.600;1.444;2024-03-22T06:31:29;17.88;;;8.70;;
21138;SDS011;10727;43.600;1.444;2024-03-22T06:34:33;14.70;;;8.85;;
21138;SDS011;10727;43.600;1.444;2024-03-22T06:37:40;15.93;;;8.35;;
21138;SDS011;10727;43.600;1.444;2024-03-22T06:40:44;20.55;;;9.50;;
21138;SDS011;10727;43.600;1.444;2024-03-22T06:43:50;18.92;;;8.38;;
21138;SDS011;10727;43.600;1.444;2024-03-22T06:46:56;15.63;;;8.00;;
21138;SDS011;10727;43.600;1.444;2024-03-22T06:50:01;17.33;;;7.80;;
21138;SDS011;10727;43.600;1.444;2024-03-22T06:53:06;16.65;;;8.40;;
21138;SDS011;10727;43.600;1.444;2024-03-22T06:56:13;17.90;;;7.82;;
21138;SDS011;10727;43.600;1.444;2024-03-22T06:59:19;24.40;;;7.80;;
21138;SDS011;10727;43.600;1.444;2024-03-22T07:02:25;16.45;;;7.90;;
21138;SDS011;10727;43.600;1.444;2024-03-22T07:05:30;17.05;;;7.88;;
21138;SDS011;10727;43.600;1.444;2024-03-22T07:08:35;13.15;;;7.47;;
21138;SDS011;10727;43.600;1.444;2024-03-22T07:11:41;16.17;;;7.57;;
21138;SDS011;10727;43.600;1.444;2024-03-22T07:14:46;23.23;;;8.18;;
21138;SDS011;10727;43.600;1.444;2024-03-22T07:17:52;16.85;;;8.02;;
21138;SDS011;10727;43.600;1.444;2024-03-22T07:20:56;16.67;;;7.75;;
21138;SDS011;10727;43.600;1.444;2024-03-22T07:24:04;19.25;;;7.63;;
21138;SDS011;10727;43.600;1.444;2024-03-22T07:27:08;21.27;;;7.88;;
21138;SDS011;10727;43.600;1.444;2024-03-22T07:30:13;18.65;;;8.18;;
21138;SDS011;10727;43.600;1.444;2024-03-22T07:33:19;15.32;;;8.07;;
21138;SDS011;10727;43.600;1.444;2024-03-22T07:36:25;20.05;;;7.95;;
21138;SDS011;10727;43.600;1.444;2024-03-22T07:39:30;14.13;;;8.45;;
21138;SDS011;10727;43.600;1.444;2024-03-22T07:42:34;19.67;;;9.05;;
21138;SDS011;10727;43.600;1.444;2024-03-22T07:45:39;18.20;;;9.82;;
21138;SDS011;10727;43.600;1.444;2024-03-22T07:48:45;19.85;;;8.85;;
21138;SDS011;10727;43.600;1.444;2024-03-22T07:51:51;20.25;;;9.30;;
21138;SDS011;10727;43.600;1.444;2024-03-22T07:54:56;22.05;;;8.30;;
21138;SDS011;10727;43.600;1.444;2024-03-22T07:58:02;20.42;;;8.88;;
21138;SDS011;10727;43.600;1.444;2024-03-22T08:01:07;19.67;;;8.45;;
21138;SDS011;10727;43.600;1.444;2024-03-22T08:04:14;18.52;;;8.98;;
21138;SDS011;10727;43.600;1.444;2024-03-22T08:07:18;13.85;;;8.57;;
21138;SDS011;10727;43.600;1.444;2024-03-22T08:10:23;16.40;;;8.45;;
21138;SDS011;10727;43.600;1.444;2024-03-22T08:13:29;19.05;;;8.70;;
21138;SDS011;10727;43.600;1.444;2024-03-22T08:16:33;17.08;;;9.10;;
21138;SDS011;10727;43.600;1.444;2024-03-22T08:19:40;22.85;;;10.13;;
21138;SDS011;10727;43.600;1.444;2024-03-22T08:22:47;21.02;;;9.43;;
21138;SDS011;10727;43.600;1.444;2024-03-22T08:25:51;20.17;;;9.57;;
21138;SDS011;10727;43.600;1.444;2024-03-22T08:28:57;20.33;;;9.73;;
21138;SDS011;10727;43.600;1.444;2024-03-22T08:32:02;19.02;;;9.48;;
21138;SDS011;10727;43.600;1.444;2024-03-22T08:35:08;16.58;;;9.85;;
21138;SDS011;10727;43.600;1.444;2024-03-22T08:38:13;20.20;;;10.38;;
21138;SDS011;10727;43.600;1.444;2024-03-22T08:41:18;22.45;;;10.07;;
21138;SDS011;10727;43.600;1.444;2024-03-22T08:44:24;19.20;;;8.55;;
21138;SDS011;10727;43.600;1.444;2024-03-22T08:47:28;20.10;;;8.93;;
21138;SDS011;10727;43.600;1.444;2024-03-22T08:50:35;19.05;;;9.55;;
21138;SDS011;10727;43.600;1.444;2024-03-22T08:53:39;18.90;;;8.57;;
21138;SDS011;10727;43.600;1.444;2024-03-22T08:56:48;22.25;;;9.07;;
21138;SDS011;10727;43.600;1.444;2024-03-22T08:59:54;16.75;;;8.50;;
21138;SDS011;10727;43.600;1.444;2024-03-22T09:02:59;18.63;;;9.05;;
21138;SDS011;10727;43.600;1.444;2024-03-22T09:06:05;16.35;;;8.40;;
21138;SDS011;10727;43.600;1.444;2024-03-22T09:09:10;16.10;;;8.60;;
21138;SDS011;10727;43.600;1.444;2024-03-22T09:12:15;17.00;;;7.70;;
21138;SDS011;10727;43.600;1.444;2024-03-22T09:15:20;20.80;;;9.10;;
21138;SDS011;10727;43.600;1.444;2024-03-22T09:18:25;19.23;;;8.98;;
21138;SDS011;10727;43.600;1.444;2024-03-22T09:21:32;18.98;;;8.05;;
21138;SDS011;10727;43.600;1.444;2024-03-22T09:24:36;20.92;;;8.93;;
21138;SDS011;10727;43.600;1.444;2024-03-22T09:27:41;15.20;;;8.02;;
21138;SDS011;10727;43.600;1.444;2024-03-22T09:30:46;17.23;;;7.72;;
21138;SDS011;10727;43.600;1.444;2024-03-22T09:33:51;14.23;;;7.00;;
21138;SDS011;10727;43.600;1.444;2024-03-22T09:36:57;18.77;;;7.43;;
21138;SDS011;10727;43.600;1.444;2024-03-22T09:40:03;21.58;;;8.23;;
21138;SDS011;10727;43.600;1.444;2024-03-22T09:43:11;15.65;;;6.75;;
21138;SDS011;10727;43.600;1.444;2024-03-22T09:46:18;13.93;;;7.00;;
21138;SDS011;10727;43.600;1.444;2024-03-22T09:49:24;18.88;;;6.88;;
21138;SDS011;10727;43.600;1.444;2024-03-22T09:52:31;14.52;;;6.55;;
21138;SDS011;10727;43.600;1.444;2024-03-22T09:55:38;15.23;;;7.28;;
21138;SDS011;10727;43.600;1.444;2024-03-22T09:58:46;25.17;;;7.90;;
21138;SDS011;10727;43.600;1.444;2024-03-22T10:01:50;21.98;;;7.75;;
21138;SDS011;10727;43.600;1.444;2024-03-22T10:04:57;19.13;;;7.32;;
21138;SDS011;10727;43.600;1.444;2024-03-22T10:08:03;14.20;;;6.18;;
21138;SDS011;10727;43.600;1.444;2024-03-22T10:11:09;17.08;;;6.80;;
21138;SDS011;10727;43.600;1.444;2024-03-22T10:14:14;18.52;;;6.78;;
21138;SDS011;10727;43.600;1.444;2024-03-22T10:17:18;19.95;;;7.20;;
21138;SDS011;10727;43.600;1.444;2024-03-22T10:20:24;14.75;;;6.32;;
21138;SDS011;10727;43.600;1.444;2024-03-22T10:23:30;13.05;;;5.70;;
21138;SDS011;10727;43.600;1.444;2024-03-22T10:26:35;19.52;;;6.88;;
21138;SDS011;10727;43.600;1.444;2024-03-22T10:29:40;14.73;;;6.13;;
21138;SDS011;10727;43.600;1.444;2024-03-22T10:32:45;14.77;;;6.03;;
21138;SDS011;10727;43.600;1.444;2024-03-22T10:35:51;21.58;;;7.15;;
21138;SDS011;10727;43.600;1.444;2024-03-22T10:38:57;13.63;;;6.38;;
21138;SDS011;10727;43.600;1.444;2024-03-22T10:42:03;16.95;;;6.70;;
21138;SDS011;10727;43.600;1.444;2024-03-22T10:45:14;16.90;;;7.10;;
21138;SDS011;10727;43.600;1.444;2024-03-22T10:48:21;15.43;;;6.60;;
21138;SDS011;10727;43.600;1.444;2024-03-22T10:51:25;17.70;;;6.30;;
21138;SDS011;10727;43.600;1.444;2024-03-22T10:54:33;17.75;;;7.15;;
21138;SDS011;10727;43.600;1.444;2024-03-22T10:57:40;12.40;;;6.57;;
21138;SDS011;10727;43.600;1.444;2024-03-22T11:00:44;15.05;;;6.03;;
21138;SDS011;10727;43.600;1.444;2024-03-22T11:03:49;13.05;;;6.22;;
21138;SDS011;10727;43.600;1.444;2024-03-22T11:06:53;18.75;;;6.30;;
21138;SDS011;10727;43.600;1.444;2024-03-22T11:10:04;11.82;;;5.78;;
21138;SDS011;10727;43.600;1.444;2024-03-22T11:13:10;15.93;;;5.55;;
21138;SDS011;10727;43.600;1.444;2024-03-22T11:16:16;17.67;;;5.47;;
21138;SDS011;10727;43.600;1.444;2024-03-22T11:19:20;15.90;;;5.55;;
21138;SDS011;10727;43.600;1.444;2024-03-22T11:22:26;12.68;;;5.63;;
21138;SDS011;10727;43.600;1.444;2024-03-22T11:25:33;12.98;;;5.20;;
21138;SDS011;10727;43.600;1.444;2024-03-22T11:28:38;17.08;;;5.57;;
21138;SDS011;10727;43.600;1.444;2024-03-22T11:31:44;12.48;;;5.03;;
21138;SDS011;10727;43.600;1.444;2024-03-22T11:34:49;16.90;;;5.95;;
21138;SDS011;10727;43.600;1.444;2024-03-22T11:37:54;15.10;;;5.68;;
21138;SDS011;10727;43.600;1.444;2024-03-22T11:41:03;13.77;;;5.10;;
21138;SDS011;10727;43.600;1.444;2024-03-22T11:44:07;11.18;;;5.05;;
21138;SDS011;10727;43.600;1.444;2024-03-22T11:47:13;11.63;;;5.65;;
21138;SDS011;10727;43.600;1.444;2024-03-22T11:50:18;12.30;;;5.20;;
21138;SDS011;10727;43.600;1.444;2024-03-22T11:53:24;10.90;;;5.30;;
21138;SDS011;10727;43.600;1.444;2024-03-22T11:56:30;14.25;;;5.22;;
21138;SDS011;10727;43.600;1.444;2024-03-22T11:59:34;7.82;;;4.63;;
21138;SDS011;10727;43.600;1.444;2024-03-22T12:02:40;14.18;;;5.15;;
21138;SDS011;10727;43.600;1.444;2024-03-22T12:05:44;11.27;;;4.63;;
21138;SDS011;10727;43.600;1.444;2024-03-22T12:08:50;10.60;;;5.00;;
21138;SDS011;10727;43.600;1.444;2024-03-22T12:11:56;24.95;;;10.20;;
21138;SDS011;10727;43.600;1.444;2024-03-22T12:15:03;12.27;;;5.43;;
21138;SDS011;10727;43.600;1.444;2024-03-22T12:18:07;10.77;;;5.13;;
21138;SDS011;10727;43.600;1.444;2024-03-22T12:21:12;15.35;;;6.13;;
21138;SDS011;10727;43.600;1.444;2024-03-22T12:24:17;10.98;;;4.82;;
21138;SDS011;10727;43.600;1.444;2024-03-22T12:27:23;7.78;;;4.85;;
21138;SDS011;10727;43.600;1.444;2024-03-22T12:30:28;9.82;;;4.72;;
21138;SDS011;10727;43.600;1.444;2024-03-22T12:33:34;9.05;;;3.90;;
21138;SDS011;10727;43.600;1.444;2024-03-22T12:36:38;9.85;;;4.57;;
21138;SDS011;10727;43.600;1.444;2024-03-22T12:39:43;10.65;;;4.20;;
21138;SDS011;10727;43.600;1.444;2024-03-22T12:42:51;11.93;;;4.72;;
21138;SDS011;10727;43.600;1.444;2024-03-22T12:45:56;12.15;;;4.80;;
21138;SDS011;10727;43.600;1.444;2024-03-22T12:49:01;12.38;;;4.40;;
21138;SDS011;10727;43.600;1.444;2024-03-22T12:52:07;8.55;;;4.32;;
21138;SDS011;10727;43.600;1.444;2024-03-22T12:55:11;9.57;;;4.25;;
21138;SDS011;10727;43.600;1.444;2024-03-22T12:58:18;6.93;;;3.78;;
21138;SDS011;10727;43.600;1.444;2024-03-22T13:01:22;11.93;;;4.28;;
21138;SDS011;10727;43.600;1.444;2024-03-22T13:04:27;9.85;;;3.83;;
21138;SDS011;10727;43.600;1.444;2024-03-22T13:07:32;7.78;;;3.75;;
21138;SDS011;10727;43.600;1.444;2024-03-22T13:10:37;6.88;;;3.70;;
21138;SDS011;10727;43.600;1.444;2024-03-22T13:13:47;9.25;;;3.58;;
21138;SDS011;10727;43.600;1.444;2024-03-22T13:16:53;11.80;;;4.03;;
21138;SDS011;10727;43.600;1.444;2024-03-22T13:19:57;9.32;;;3.88;;
21138;SDS011;10727;43.600;1.444;2024-03-22T13:23:04;14.52;;;3.72;;
21138;SDS011;10727;43.600;1.444;2024-03-22T13:26:08;6.85;;;3.42;;
21138;SDS011;10727;43.600;1.444;2024-03-22T13:29:16;12.35;;;3.95;;
21138;SDS011;10727;43.600;1.444;2024-03-22T13:32:20;13.05;;;3.58;;
21138;SDS011;10727;43.600;1.444;2024-03-22T13:35:25;9.48;;;3.55;;
21138;SDS011;10727;43.600;1.444;2024-03-22T13:38:30;10.30;;;3.55;;
21138;SDS011;10727;43.600;1.444;2024-03-22T13:41:36;7.13;;;3.17;;
21138;SDS011;10727;43.600;1.444;2024-03-22T13:44:42;8.73;;;3.20;;
21138;SDS011;10727;43.600;1.444;2024-03-22T13:47:47;10.00;;;3.30;;
21138;SDS011;10727;43.600;1.444;2024-03-22T13:50:52;8.35;;;3.60;;
21138;SDS011;10727;43.600;1.444;2024-03-22T13:53:58;12.27;;;3.40;;
21138;SDS011;10727;43.600;1.444;2024-03-22T13:57:02;8.88;;;2.97;;
21138;SDS011;10727;43.600;1.444;2024-03-22T14:00:09;10.10;;;3.75;;
21138;SDS011;10727;43.600;1.444;2024-03-22T14:03:18;7.55;;;3.22;;
21138;SDS011;10727;43.600;1.444;2024-03-22T14:06:23;10.90;;;3.40;;
21138;SDS011;10727;43.600;1.444;2024-03-22T14:09:28;11.98;;;3.45;;
21138;SDS011;10727;43.600;1.444;2024-03-22T14:12:33;10.07;;;3.10;;
21138;SDS011;10727;43.600;1.444;2024-03-22T14:15:40;8.30;;;3.22;;
21138;SDS011;10727;43.600;1.444;2024-03-22T14:18:46;14.43;;;3.22;;
21138;SDS011;10727;43.600;1.444;2024-03-22T14:21:52;10.18;;;3.50;;
21138;SDS011;10727;43.600;1.444;2024-03-22T14:24:57;6.57;;;2.95;;
21138;SDS011;10727;43.600;1.444;2024-03-22T14:28:02;6.13;;;3.00;;
21138;SDS011;10727;43.600;1.444;2024-03-22T14:31:08;10.20;;;3.58;;
21138;SDS011;10727;43.600;1.444;2024-03-22T14:34:13;8.88;;;3.35;;
21138;SDS011;10727;43.600;1.444;2024-03-22T14:37:18;9.93;;;3.42;;
21138;SDS011;10727;43.600;1.444;2024-03-22T14:40:23;15.63;;;3.47;;
21138;SDS011;10727;43.600;1.444;2024-03-22T14:43:28;14.25;;;2.97;;
21138;SDS011;10727;43.600;1.444;2024-03-22T14:46:35;10.10;;;3.20;;
21138;SDS011;10727;43.600;1.444;2024-03-22T14:49:41;7.25;;;2.70;;
21138;SDS011;10727;43.600;1.444;2024-03-22T14:52:47;11.30;;;3.00;;
21138;SDS011;10727;43.600;1.444;2024-03-22T14:55:53;10.80;;;3.10;;
21138;SDS011;10727;43.600;1.444;2024-03-22T14:59:01;8.60;;;2.90;;
21138;SDS011;10727;43.600;1.444;2024-03-22T15:02:08;5.93;;;3.00;;
21138;SDS011;10727;43.600;1.444;2024-03-22T15:05:13;15.13;;;3.67;;
21138;SDS011;10727;43.600;1.444;2024-03-22T15:08:18;13.82;;;3.38;;
21138;SDS011;10727;43.600;1.444;2024-03-22T15:11:23;17.55;;;3.53;;
21138;SDS011;10727;43.600;1.444;2024-03-22T15:14:27;7.53;;;3.13;;
21138;SDS011;10727;43.600;1.444;2024-03-22T15:17:35;11.68;;;3.40;;
21138;SDS011;10727;43.600;1.444;2024-03-22T15:20:40;9.85;;;3.08;;
21138;SDS011;10727;43.600;1.444;2024-03-22T15:23:44;5.93;;;2.83;;
21138;SDS011;10727;43.600;1.444;2024-03-22T15:26:50;12.07;;;3.22;;
21138;SDS011;10727;43.600;1.444;2024-03-22T15:29:54;7.40;;;2.83;;
21138;SDS011;10727;43.600;1.444;2024-03-22T15:33:02;10.60;;;2.97;;
21138;SDS011;10727;43.600;1.444;2024-03-22T15:36:06;11.88;;;3.13;;
21138;SDS011;10727;43.600;1.444;2024-03-22T15:39:12;14.93;;;3.75;;
21138;SDS011;10727;43.600;1.444;2024-03-22T15:42:16;10.88;;;3.28;;
21138;SDS011;10727;43.600;1.444;2024-03-22T15:45:21;11.25;;;3.03;;
21138;SDS011;10727;43.600;1.444;2024-03-22T15:48:28;10.30;;;2.90;;
21138;SDS011;10727;43.600;1.444;2024-03-22T15:51:33;11.00;;;3.17;;
21138;SDS011;10727;43.600;1.444;2024-03-22T15:54:38;16.85;;;3.40;;
21138;SDS011;10727;43.600;1.444;2024-03-22T15:57:43;7.80;;;2.80;;
21138;SDS011;10727;43.600;1.444;2024-03-22T16:00:49;11.63;;;2.90;;
21138;SDS011;10727;43.600;1.444;2024-03-22T16:03:55;17.80;;;3.03;;
21138;SDS011;10727;43.600;1.444;2024-03-22T16:07:01;7.72;;;3.20;;
21138;SDS011;10727;43.600;1.444;2024-03-22T16:10:06;12.75;;;3.13;;
21138;SDS011;10727;43.600;1.444;2024-03-22T16:13:13;9.23;;;2.70;;
21138;SDS011;10727;43.600;1.444;2024-03-22T16:16:18;12.45;;;3.88;;
21138;SDS011;10727;43.600;1.444;2024-03-22T16:23:03;8.52;;;2.70;;
21138;SDS011;10727;43.600;1.444;2024-03-22T16:26:10;13.82;;;3.35;;
21138;SDS011;10727;43.600;1.444;2024-03-22T16:29:14;8.57;;;2.83;;
21138;SDS011;10727;43.600;1.444;2024-03-22T16:32:20;8.00;;;3.17;;
21138;SDS011;10727;43.600;1.444;2024-03-22T16:35:24;12.48;;;2.63;;
21138;SDS011;10727;43.600;1.444;2024-03-22T16:38:31;8.77;;;3.22;;
21138;SDS011;10727;43.600;1.444;2024-03-22T16:41:35;8.48;;;3.30;;
21138;SDS011;10727;43.600;1.444;2024-03-22T16:44:40;9.02;;;2.90;;
21138;SDS011;10727;43.600;1.444;2024-03-22T16:47:45;13.52;;;3.30;;
21138;SDS011;10727;43.600;1.444;2024-03-22T16:50:49;10.30;;;3.30;;
21138;SDS011;10727;43.600;1.444;2024-03-22T16:53:56;15.65;;;3.88;;
21138;SDS011;10727;43.600;1.444;2024-03-22T16:57:00;11.90;;;4.90;;
21138;SDS011;10727;43.600;1.444;2024-03-22T17:00:06;13.85;;;4.75;;
21138;SDS011;10727;43.600;1.444;2024-03-22T17:03:11;11.60;;;4.72;;
21138;SDS011;10727;43.600;1.444;2024-03-22T17:06:16;13.48;;;4.00;;
21138;SDS011;10727;43.600;1.444;2024-03-22T17:09:22;9.07;;;3.67;;
21138;SDS011;10727;43.600;1.444;2024-03-22T17:12:27;15.18;;;3.45;;
21138;SDS011;10727;43.600;1.444;2024-03-22T17:15:33;11.48;;;3.80;;
21138;SDS011;10727;43.600;1.444;2024-03-22T17:18:37;15.30;;;4.10;;
21138;SDS011;10727;43.600;1.444;2024-03-22T17:21:43;13.10;;;3.75;;
21138;SDS011;10727;43.600;1.444;2024-03-22T17:24:48;10.15;;;3.80;;
21138;SDS011;10727;43.600;1.444;2024-03-22T17:27:54;11.70;;;3.72;;
21138;SDS011;10727;43.600;1.444;2024-03-22T17:30:58;11.20;;;3.75;;
21138;SDS011;10727;43.600;1.444;2024-03-22T17:34:04;14.00;;;4.70;;
21138;SDS011;10727;43.600;1.444;2024-03-22T17:37:08;14.90;;;5.35;;
21138;SDS011;10727;43.600;1.444;2024-03-22T17:40:17;17.52;;;4.43;;
21138;SDS011;10727;43.600;1.444;2024-03-22T17:43:26;12.50;;;4.07;;
21138;SDS011;10727;43.600;1.444;2024-03-22T17:46:31;10.75;;;4.03;;
21138;SDS011;10727;43.600;1.444;2024-03-22T17:49:39;14.93;;;4.70;;
21138;SDS011;10727;43.600;1.444;2024-03-22T17:52:43;10.68;;;4.78;;
21138;SDS011;10727;43.600;1.444;2024-03-22T17:55:50;13.75;;;6.07;;
21138;SDS011;10727;43.600;1.444;2024-03-22T17:58:54;15.30;;;4.75;;
21138;SDS011;10727;43.600;1.444;2024-03-22T18:01:59;10.48;;;4.95;;
21138;SDS011;10727;43.600;1.444;2024-03-22T18:05:03;20.25;;;5.78;;
21138;SDS011;10727;43.600;1.444;2024-03-22T18:08:09;15.00;;;5.68;;
21138;SDS011;10727;43.600;1.444;2024-03-22T18:11:16;13.40;;;6.35;;
21138;SDS011;10727;43.600;1.444;2024-03-22T18:14:20;13.50;;;6.63;;
21138;SDS011;10727;43.600;1.444;2024-03-22T18:17:26;20.55;;;8.63;;
21138;SDS011;10727;43.600;1.444;2024-03-22T18:20:30;23.25;;;9.95;;
21138;SDS011;10727;43.600;1.444;2024-03-22T18:23:36;19.52;;;9.60;;
21138;SDS011;10727;43.600;1.444;2024-03-22T18:26:42;21.38;;;10.73;;